Time;durP1;ratioP1;P1;durP2;ratioP2;P2;SDS_P1;SDS_P2;PMS_P1;PMS_P2;Temp;Humidity;BMP_temperature;BMP_pressure;BME280_temperature;BME280_humidity;BME280_pressure;Samples;Min_cycle;Max_cycle;Signal;HPM_P1;HPM_P2
2022/09/30 00:00:16;;;;;;;3.13;2.87;;;;;;;23.06;55.41;96523.81;5053874;28;20200;-31
2022/09/30 00:02:43;;;;;;;3.07;2.80;;;;;;;23.05;55.34;96522.13;5053381;28;20193;-31
2022/09/30 00:05:10;;;;;;;2.90;2.70;;;;;;;23.05;55.40;96520.44;5053796;28;20225;-31
2022/09/30 00:07:36;;;;;;;2.73;2.50;;;;;;;23.05;55.28;96514.44;5053325;28;20220;-31
2022/09/30 00:10:03;;;;;;;3.17;2.87;;;;;;;23.05;55.23;96523.00;5051742;28;20707;-31
2022/09/30 00:12:30;;;;;;;3.17;2.87;;;;;;;23.05;55.34;96523.00;5047936;28;20383;-31
2022/09/30 00:14:56;;;;;;;2.80;2.60;;;;;;;23.02;55.31;96525.53;5062547;28;20232;-31
2022/09/30 00:17:23;;;;;;;2.90;2.70;;;;;;;23.05;55.36;96527.25;5052891;28;20201;-31
2022/09/30 00:19:49;;;;;;;3.20;2.90;;;;;;;23.05;55.29;96527.25;5054727;28;20212;-31
2022/09/30 00:22:16;;;;;;;3.00;2.80;;;;;;;23.04;55.27;96528.94;5047487;28;20197;-31
2022/09/30 00:24:42;;;;;;;2.97;2.77;;;;;;;23.05;55.28;96529.81;5052799;28;20221;-31
2022/09/30 00:27:09;;;;;;;2.87;2.67;;;;;;;23.05;55.30;96535.81;5053135;28;20212;-31
2022/09/30 00:29:35;;;;;;;3.30;3.00;;;;;;;23.05;55.31;96542.63;5053153;28;20213;-31
2022/09/30 00:32:02;;;;;;;3.00;2.77;;;;;;;23.05;55.42;96540.94;5053344;28;20204;-31
2022/09/30 00:34:28;;;;;;;2.97;2.77;;;;;;;23.04;55.63;96539.19;5053169;28;20598;-31
2022/09/30 00:36:55;;;;;;;3.00;2.80;;;;;;;23.05;55.15;96538.38;5052888;28;20205;-31
2022/09/30 00:39:26;;;;;;;3.00;2.77;;;;;;;23.05;55.42;96540.06;5053157;28;20197;-31
2022/09/30 00:41:57;;;;;;;3.23;2.93;;;;;;;23.06;55.36;96552.00;5053169;28;20204;-31
2022/09/30 00:44:43;;;;;;;3.40;3.10;;;;;;;23.05;55.30;96558.88;5051679;28;20228;-31
2022/09/30 00:47:23;;;;;;;2.90;2.70;;;;;;;23.05;55.30;96564.00;5052688;28;20663;-31
2022/09/30 00:49:49;;;;;;;2.83;2.63;;;;;;;23.02;55.25;96551.16;5051036;28;20224;-31
2022/09/30 00:52:16;;;;;;;2.57;2.37;;;;;;;23.02;55.26;96563.97;5043597;28;20201;-31
2022/09/30 00:54:43;;;;;;;2.63;2.43;;;;;;;23.06;55.56;96572.50;5043429;28;20606;-31
2022/09/30 00:57:10;;;;;;;2.90;2.60;;;;;;;23.05;55.20;96575.94;5052691;28;20212;-31
2022/09/30 00:59:40;;;;;;;2.90;2.63;;;;;;;23.05;55.26;96568.25;5051438;28;20199;-31
2022/09/30 01:02:09;;;;;;;2.90;2.70;;;;;;;23.05;55.31;96573.38;5053240;28;20218;-31
2022/09/30 01:04:35;;;;;;;2.70;2.50;;;;;;;22.93;55.36;96552.78;5055779;28;20223;-31
2022/09/30 01:07:03;;;;;;;2.63;2.43;;;;;;;23.04;55.24;96572.50;5054045;28;20595;-31
2022/09/30 01:09:34;;;;;;;2.87;2.57;;;;;;;23.05;55.22;96571.69;5057725;28;20425;-31
2022/09/30 01:12:09;;;;;;;2.90;2.70;;;;;;;23.04;55.24;96575.06;5034945;28;20692;-31
2022/09/30 01:14:36;;;;;;;2.60;2.40;;;;;;;22.98;55.73;96562.19;5050807;28;20227;-31
2022/09/30 01:17:02;;;;;;;2.80;2.60;;;;;;;23.03;55.16;96572.50;5051111;28;20201;-31
2022/09/30 01:19:57;;;;;;;2.70;2.50;;;;;;;23.03;55.19;96573.34;5052429;28;20714;-31
2022/09/30 01:22:49;;;;;;;2.70;2.50;;;;;;;23.05;55.25;96586.19;5051907;28;20203;-31
2022/09/30 01:25:33;;;;;;;2.87;2.67;;;;;;;23.03;55.25;96581.03;5045053;28;20213;-31
2022/09/30 01:28:17;;;;;;;3.03;2.80;;;;;;;23.04;55.25;96589.59;5052288;28;21181;-31
2022/09/30 01:31:02;;;;;;;2.80;2.60;;;;;;;23.04;55.28;96594.72;5050815;28;20223;-31
2022/09/30 01:33:44;;;;;;;2.87;2.67;;;;;;;23.00;55.24;96581.03;5051963;28;20296;-31
2022/09/30 01:36:34;;;;;;;2.73;2.53;;;;;;;23.01;55.49;96592.13;5050825;28;20197;-31
2022/09/30 01:39:22;;;;;;;2.53;2.33;;;;;;;23.03;55.30;96593.84;5050904;28;20205;-31
2022/09/30 01:42:08;;;;;;;2.47;2.27;;;;;;;23.00;55.41;96582.72;5050363;28;20207;-31
2022/09/30 01:44:53;;;;;;;3.00;2.80;;;;;;;23.04;55.42;96587.03;5050804;28;20612;-31
2022/09/30 01:47:28;;;;;;;3.03;2.83;;;;;;;23.03;55.37;96586.19;5045452;28;20197;-31
2022/09/30 01:50:04;;;;;;;2.90;2.70;;;;;;;23.03;55.36;96590.44;5050777;28;20217;-31
2022/09/30 01:52:36;;;;;;;2.50;2.30;;;;;;;23.03;55.29;96586.19;5049868;28;20212;-31
2022/09/30 01:55:03;;;;;;;3.00;2.80;;;;;;;23.03;55.22;96593.00;5051546;28;20782;-31
2022/09/30 01:57:59;;;;;;;2.60;2.40;;;;;;;22.92;55.18;96581.81;5051712;28;20200;-31
2022/09/30 02:00:26;;;;;;;2.70;2.50;;;;;;;23.02;55.10;96602.41;5045754;28;20203;-31
2022/09/30 02:02:59;;;;;;;2.80;2.60;;;;;;;23.04;55.30;96612.66;5050157;28;20201;-31
2022/09/30 02:05:28;;;;;;;2.80;2.60;;;;;;;23.03;55.30;96608.38;5049842;28;20213;-31
2022/09/30 02:08:09;;;;;;;2.90;2.70;;;;;;;23.01;55.30;96602.38;5054351;28;20667;-31
2022/09/30 02:10:46;;;;;;;3.10;2.90;;;;;;;23.03;55.17;96613.50;5054034;28;20223;-31
2022/09/30 02:13:21;;;;;;;2.83;2.57;;;;;;;23.03;55.33;96616.91;5058948;28;20197;-31
2022/09/30 02:15:51;;;;;;;2.90;2.70;;;;;;;23.03;55.10;96623.75;5041193;28;20227;-30
2022/09/30 02:18:25;;;;;;;2.87;2.67;;;;;;;23.03;55.52;96623.75;5042845;28;20227;-31
2022/09/30 02:20:55;;;;;;;2.70;2.50;;;;;;;22.97;55.39;96610.88;5053171;28;20205;-30
2022/09/30 02:23:27;;;;;;;2.73;2.53;;;;;;;23.02;55.21;96617.78;5035573;28;20575;-30
2022/09/30 02:25:58;;;;;;;2.87;2.67;;;;;;;22.96;55.28;96606.59;5043318;28;20247;-31
2022/09/30 02:28:26;;;;;;;2.87;2.67;;;;;;;22.94;55.27;96603.16;5035374;28;20197;-31
2022/09/30 02:30:55;;;;;;;3.07;2.80;;;;;;;23.03;55.37;96610.94;5045245;28;20232;-30
2022/09/30 02:33:25;;;;;;;2.67;2.47;;;;;;;23.02;55.35;96607.53;5043295;28;20197;-31
2022/09/30 02:35:54;;;;;;;2.70;2.50;;;;;;;23.02;55.51;96612.66;5048847;28;20220;-31
2022/09/30 02:38:23;;;;;;;2.97;2.77;;;;;;;22.99;55.27;96616.88;5049908;28;20212;-31
2022/09/30 02:40:53;;;;;;;2.67;2.47;;;;;;;23.03;55.20;96610.94;5042387;28;20199;-31
2022/09/30 02:43:20;;;;;;;2.70;2.50;;;;;;;22.98;55.45;96605.75;5049387;28;20196;-31
2022/09/30 02:46:09;;;;;;;2.93;2.73;;;;;;;22.82;55.30;96575.72;5042319;28;20699;-31
2022/09/30 02:48:54;;;;;;;3.20;2.90;;;;;;;23.03;55.18;96618.63;5049779;28;20232;-31
2022/09/30 02:51:26;;;;;;;2.80;2.60;;;;;;;23.03;55.42;96619.50;5051007;28;20207;-31
2022/09/30 02:53:53;;;;;;;3.07;2.80;;;;;;;23.02;55.22;96617.78;5049364;28;20220;-31
2022/09/30 02:56:24;;;;;;;2.70;2.50;;;;;;;23.03;55.29;96609.22;5050448;28;20374;-31
2022/09/30 02:58:50;;;;;;;2.90;2.70;;;;;;;23.03;55.25;96606.69;5049232;28;20208;-31
2022/09/30 03:01:17;;;;;;;2.67;2.47;;;;;;;23.04;55.28;96602.41;5049277;28;20201;-31
2022/09/30 03:03:50;;;;;;;2.70;2.50;;;;;;;23.04;55.18;96602.41;5050863;28;20359;-31
2022/09/30 03:06:17;;;;;;;2.80;2.60;;;;;;;22.91;54.96;96586.06;5050532;28;20201;-31
2022/09/30 03:08:43;;;;;;;2.57;2.37;;;;;;;23.04;55.21;96612.66;5043185;28;20192;-31
2022/09/30 03:11:18;;;;;;;2.80;2.60;;;;;;;23.04;55.29;96616.06;5050427;28;20414;-31
2022/09/30 03:14:16;;;;;;;2.60;2.40;;;;;;;23.04;55.11;96628.88;5049168;28;20215;-31
2022/09/30 03:16:42;;;;;;;2.80;2.60;;;;;;;23.03;55.17;96629.75;5047286;28;20193;-30
2022/09/30 03:19:36;;;;;;;2.83;2.63;;;;;;;23.04;55.16;96633.16;5050684;28;20284;-31
2022/09/30 03:22:14;;;;;;;2.70;2.50;;;;;;;23.00;55.07;96628.84;5050889;28;20200;-31
2022/09/30 03:24:56;;;;;;;3.27;2.97;;;;;;;23.02;55.42;96628.03;5050428;28;20592;-31
2022/09/30 03:27:50;;;;;;;2.67;2.47;;;;;;;23.03;55.27;96636.56;5060203;28;20208;-31
2022/09/30 03:30:25;;;;;;;2.67;2.47;;;;;;;23.03;55.30;96637.44;5061270;28;20222;-31
2022/09/30 03:33:24;;;;;;;2.80;2.60;;;;;;;22.94;55.24;96624.53;5037279;28;20201;-31
2022/09/30 03:36:06;;;;;;;2.70;2.50;;;;;;;23.00;55.24;96645.09;5043115;28;20226;-31
2022/09/30 03:38:44;;;;;;;3.00;2.80;;;;;;;23.02;55.20;96645.97;5049006;28;20197;-31
2022/09/30 03:41:14;;;;;;;2.80;2.60;;;;;;;23.01;55.20;96654.47;5054774;28;20219;-31
2022/09/30 03:43:42;;;;;;;2.97;2.77;;;;;;;23.02;55.60;96660.47;5051578;28;20201;-31
2022/09/30 03:46:15;;;;;;;2.37;2.17;;;;;;;23.02;55.28;96661.34;5049864;28;20208;-31
2022/09/30 03:48:41;;;;;;;2.90;2.70;;;;;;;23.02;55.10;96665.59;5054002;28;20235;-31
2022/09/30 03:51:08;;;;;;;2.80;2.60;;;;;;;22.92;55.18;96643.31;5032644;28;20217;-31
2022/09/30 03:53:41;;;;;;;2.70;2.50;;;;;;;23.03;55.38;96667.31;5052649;28;20590;-31
2022/09/30 03:56:07;;;;;;;2.77;2.57;;;;;;;23.02;55.03;96663.91;5035579;28;20208;-31
2022/09/30 03:58:34;;;;;;;2.63;2.43;;;;;;;23.03;55.22;96675.00;5054068;28;20197;-31
2022/09/30 04:01:01;;;;;;;2.70;2.50;;;;;;;23.02;55.18;96673.28;5052780;28;20205;-31
2022/09/30 04:03:27;;;;;;;2.70;2.50;;;;;;;23.02;55.11;96674.16;5053648;28;20201;-30
2022/09/30 04:05:54;;;;;;;2.67;2.47;;;;;;;23.02;55.28;96674.16;5053490;28;20224;-31
2022/09/30 04:08:21;;;;;;;2.80;2.60;;;;;;;23.00;54.71;96675.84;5053286;28;20667;-31
2022/09/30 04:10:48;;;;;;;2.53;2.33;;;;;;;23.03;55.19;96673.31;5053960;28;20228;-31
2022/09/30 04:13:14;;;;;;;2.53;2.33;;;;;;;22.98;55.24;96666.44;5053350;28;20584;-31
2022/09/30 04:15:41;;;;;;;2.67;2.47;;;;;;;23.03;55.10;96677.56;5053592;28;20221;-31
2022/09/30 04:18:07;;;;;;;2.80;2.60;;;;;;;23.04;55.74;96679.31;5053291;28;20196;-31
2022/09/30 04:20:34;;;;;;;2.70;2.50;;;;;;;23.02;55.26;96686.97;5053322;28;20189;-31
2022/09/30 04:23:00;;;;;;;2.70;2.50;;;;;;;23.01;55.22;96687.78;5053042;28;20205;-31
2022/09/30 04:25:27;;;;;;;2.77;2.57;;;;;;;22.97;55.29;96674.94;5059411;28;20599;-31
2022/09/30 04:27:54;;;;;;;2.50;2.30;;;;;;;23.02;55.30;96686.97;5056894;28;20205;-31
2022/09/30 04:30:20;;;;;;;2.60;2.40;;;;;;;23.02;55.55;96681.84;5053557;28;20313;-31
2022/09/30 04:32:52;;;;;;;2.60;2.40;;;;;;;23.03;55.21;96690.38;5052929;28;20209;-31
2022/09/30 04:35:19;;;;;;;2.73;2.53;;;;;;;23.02;55.05;96686.97;5052712;28;20221;-31
2022/09/30 04:37:46;;;;;;;3.00;2.70;;;;;;;23.02;55.40;96692.09;5053046;28;20226;-31
2022/09/30 04:40:13;;;;;;;2.20;2.10;;;;;;;23.02;55.29;96694.66;5053259;28;20196;-31
2022/09/30 04:42:41;;;;;;;2.43;2.23;;;;;;;23.02;55.20;96697.22;5053221;28;20287;-31
2022/09/30 04:45:09;;;;;;;3.00;2.80;;;;;;;23.03;55.27;96698.94;5052583;28;20219;-31
2022/09/30 04:47:36;;;;;;;2.70;2.50;;;;;;;23.02;55.27;96701.47;5053023;28;20290;-31
2022/09/30 04:50:04;;;;;;;2.53;2.33;;;;;;;23.03;55.35;96701.50;5052627;28;20228;-31
2022/09/30 04:52:30;;;;;;;2.60;2.40;;;;;;;23.00;55.22;96698.91;5051778;28;20551;-31
2022/09/30 04:54:57;;;;;;;2.80;2.60;;;;;;;23.00;55.16;96704.03;5052654;28;20228;-31
2022/09/30 04:57:24;;;;;;;2.43;2.23;;;;;;;23.03;54.83;96704.06;5051809;28;20204;-31
2022/09/30 04:59:51;;;;;;;3.23;2.93;;;;;;;23.03;55.28;96705.75;5053030;28;20201;-31
2022/09/30 05:02:17;;;;;;;2.80;2.60;;;;;;;23.04;55.21;96712.63;5052588;28;20703;-31
2022/09/30 05:04:44;;;;;;;3.07;2.77;;;;;;;23.01;55.08;96704.91;5053246;28;20711;-31
2022/09/30 05:07:10;;;;;;;2.70;2.50;;;;;;;23.04;55.22;96712.63;5056712;28;20558;-31
2022/09/30 05:09:37;;;;;;;2.70;2.50;;;;;;;23.05;55.34;96712.63;5052394;28;20444;-31
2022/09/30 05:12:04;;;;;;;2.80;2.60;;;;;;;23.05;55.36;96716.88;5052616;28;20251;-31
2022/09/30 05:14:31;;;;;;;2.63;2.43;;;;;;;23.04;55.27;96722.88;5051721;28;20220;-31
2022/09/30 05:16:57;;;;;;;2.97;2.77;;;;;;;23.04;55.30;96721.13;5052592;28;20205;-31
2022/09/30 05:19:24;;;;;;;2.50;2.30;;;;;;;23.04;55.20;96723.69;5052284;28;20671;-31
2022/09/30 05:21:51;;;;;;;2.80;2.20;;;;;;;23.06;55.16;96726.28;5052511;28;20212;-31
2022/09/30 05:24:17;;;;;;;2.90;2.70;;;;;;;23.05;55.17;96729.69;5052249;28;20216;-31
2022/09/30 05:26:44;;;;;;;2.97;2.70;;;;;;;23.02;55.14;96722.84;5052209;28;20817;-31
2022/09/30 05:29:11;;;;;;;2.97;2.70;;;;;;;23.01;55.30;96728.78;5052118;28;20209;-31
2022/09/30 05:31:37;;;;;;;3.03;2.77;;;;;;;23.03;55.26;96742.50;5051930;28;20229;-31
2022/09/30 05:34:04;;;;;;;3.10;2.80;;;;;;;23.05;55.17;96747.63;5052362;28;20590;-31
2022/09/30 05:36:30;;;;;;;3.00;2.70;;;;;;;23.05;55.28;96752.75;5051622;28;20208;-31
2022/09/30 05:38:57;;;;;;;2.80;2.60;;;;;;;23.05;55.31;96763.00;5052331;28;20603;-31
2022/09/30 05:41:23;;;;;;;2.70;2.50;;;;;;;23.06;55.28;96764.72;5051605;28;20200;-30
2022/09/30 05:43:50;;;;;;;3.60;2.80;;;;;;;23.05;55.33;96763.00;5053396;28;20376;-31
2022/09/30 05:46:17;;;;;;;2.57;2.37;;;;;;;23.05;55.26;96761.31;5059551;28;20197;-31
2022/09/30 05:48:44;;;;;;;2.60;2.40;;;;;;;22.97;55.20;96751.81;5051746;28;20632;-31
2022/09/30 05:51:11;;;;;;;2.60;2.40;;;;;;;23.05;55.10;96760.44;5051609;28;20247;-31
2022/09/30 05:53:38;;;;;;;2.30;2.10;;;;;;;23.06;55.34;96764.72;5051493;28;20216;-31
2022/09/30 05:56:05;;;;;;;2.53;2.30;;;;;;;23.05;55.25;96778.38;5054577;28;20208;-31
2022/09/30 05:58:32;;;;;;;2.40;2.17;;;;;;;23.01;55.29;96795.44;5056644;28;20193;-31
2022/09/30 06:01:06;;;;;;;3.43;2.70;;;;;;;23.03;55.14;96774.94;5051693;28;20204;-31
2022/09/30 06:03:38;;;;;;;2.53;2.33;;;;;;;23.04;55.17;96782.66;5051411;28;20575;-31
2022/09/30 06:06:05;;;;;;;2.83;2.63;;;;;;;22.94;55.30;96770.56;5064039;28;20208;-31
2022/09/30 06:08:32;;;;;;;2.60;2.40;;;;;;;23.05;55.23;96789.50;5029698;28;20201;-31
2022/09/30 06:10:58;;;;;;;2.70;2.50;;;;;;;23.05;55.20;96789.50;5050434;28;20220;-31
2022/09/30 06:13:26;;;;;;;2.73;2.33;;;;;;;23.05;55.25;96796.34;5050810;28;20200;-31
2022/09/30 06:15:59;;;;;;;3.10;2.80;;;;;;;23.02;55.28;96802.28;5051357;28;20221;-31
2022/09/30 06:18:26;;;;;;;2.60;2.40;;;;;;;23.06;55.28;96801.47;5051032;28;20204;-31
2022/09/30 06:20:59;;;;;;;2.80;2.60;;;;;;;23.07;55.29;96810.03;5051112;28;20557;-31
2022/09/30 06:23:26;;;;;;;2.53;2.33;;;;;;;23.04;55.22;96810.84;5050975;28;20200;-31
2022/09/30 06:25:53;;;;;;;2.50;2.30;;;;;;;23.06;55.18;96813.41;5050841;28;20220;-31
2022/09/30 06:28:19;;;;;;;2.97;2.53;;;;;;;23.06;55.18;96814.28;5047032;28;20201;-31
2022/09/30 06:30:46;;;;;;;2.27;2.10;;;;;;;23.06;55.14;96813.41;5048554;28;20594;-31
2022/09/30 06:33:13;;;;;;;2.87;2.50;;;;;;;23.06;55.24;96821.09;5051012;28;20201;-31
2022/09/30 06:35:42;;;;;;;3.20;2.40;;;;;;;23.06;55.31;96829.66;5051127;28;20220;-31
2022/09/30 06:38:09;;;;;;;2.70;2.50;;;;;;;23.06;55.15;96834.78;5045962;28;20201;-31
2022/09/30 06:40:36;;;;;;;2.30;2.10;;;;;;;23.05;55.17;96833.09;5051087;28;20203;-30
2022/09/30 06:43:02;;;;;;;2.70;2.50;;;;;;;23.05;55.09;96833.09;5050896;28;20303;-31
2022/09/30 06:45:31;;;;;;;3.30;2.60;;;;;;;23.06;55.14;96834.78;5050572;28;20228;-31
2022/09/30 06:47:59;;;;;;;2.40;2.20;;;;;;;23.01;55.13;96823.63;5050591;28;20657;-31
2022/09/30 06:50:26;;;;;;;2.60;2.40;;;;;;;23.02;55.10;96830.47;5049629;28;20229;-31
2022/09/30 06:52:58;;;;;;;2.67;2.47;;;;;;;23.03;55.11;96834.75;5049393;28;20224;-31
2022/09/30 06:55:26;;;;;;;2.50;2.30;;;;;;;23.07;55.05;96840.78;5050218;28;20235;-30
2022/09/30 06:57:53;;;;;;;2.90;2.43;;;;;;;23.05;55.19;96843.34;5050792;28;20216;-31
2022/09/30 07:00:20;;;;;;;2.53;2.33;;;;;;;23.05;54.84;96838.22;5050274;28;20199;-31
2022/09/30 07:02:47;;;;;;;2.97;2.67;;;;;;;23.05;55.11;96842.47;5050798;28;20444;-31
2022/09/30 07:05:15;;;;;;;3.33;2.60;;;;;;;23.01;55.28;96845.84;5050645;28;20789;-31
2022/09/30 07:07:42;;;;;;;2.97;2.67;;;;;;;23.06;55.22;96862.13;5047870;28;20197;-31
2022/09/30 07:10:09;;;;;;;2.27;2.10;;;;;;;23.06;55.14;96857.00;5062412;28;20200;-31
2022/09/30 07:12:35;;;;;;;2.60;2.40;;;;;;;23.05;55.22;96853.59;5051707;28;20696;-31
2022/09/30 07:15:02;;;;;;;2.47;2.27;;;;;;;23.06;55.10;96857.00;5050074;28;20220;-31
2022/09/30 07:17:28;;;;;;;2.63;2.43;;;;;;;23.06;55.16;96864.69;5050594;28;20200;-31
2022/09/30 07:19:55;;;;;;;2.13;2.00;;;;;;;23.04;55.27;96864.66;5050491;28;20205;-31
2022/09/30 07:22:33;;;;;;;2.47;2.27;;;;;;;23.06;55.20;96864.69;5066698;28;20193;-31
2022/09/30 07:25:00;;;;;;;2.40;2.20;;;;;;;23.05;55.17;96868.09;5056608;28;20340;-31
2022/09/30 07:27:27;;;;;;;2.53;2.20;;;;;;;23.07;55.24;96866.41;5063669;28;20197;-31
2022/09/30 07:29:53;;;;;;;2.67;2.47;;;;;;;23.06;54.95;96870.69;5052924;28;20785;-31
2022/09/30 07:32:35;;;;;;;2.67;2.30;;;;;;;23.07;55.17;96880.06;5054569;28;20205;-31
2022/09/30 07:35:02;;;;;;;2.43;2.23;;;;;;;23.05;55.08;96876.66;5053646;28;20335;-31
2022/09/30 07:37:32;;;;;;;2.17;2.03;;;;;;;23.06;55.10;96878.38;5054105;28;20583;-30
2022/09/30 07:39:58;;;;;;;2.63;2.43;;;;;;;23.07;55.07;96881.81;5057125;28;20204;-30
2022/09/30 07:42:25;;;;;;;2.40;2.20;;;;;;;23.06;55.17;96887.75;5054587;28;20197;-31
2022/09/30 07:44:52;;;;;;;2.63;2.43;;;;;;;23.07;55.14;96887.75;5053829;28;20707;-31
2022/09/30 07:47:20;;;;;;;2.70;2.50;;;;;;;23.07;55.07;96899.75;5053854;28;20220;-31
2022/09/30 07:49:46;;;;;;;2.77;2.40;;;;;;;23.07;55.07;96902.31;5053972;28;20224;-31
2022/09/30 07:52:13;;;;;;;2.30;2.10;;;;;;;23.06;55.08;96898.88;5053817;28;20225;-31
2022/09/30 07:54:40;;;;;;;2.90;2.70;;;;;;;23.06;55.04;96898.00;5054055;28;20232;-31
2022/09/30 07:57:12;;;;;;;2.10;2.00;;;;;;;23.00;55.06;96891.09;5060129;28;20208;-31
2022/09/30 07:59:39;;;;;;;2.60;2.40;;;;;;;23.06;55.04;96909.13;5052703;28;20193;-31
2022/09/30 08:02:07;;;;;;;2.67;2.47;;;;;;;23.05;55.20;96904.84;5049659;28;20556;-31
2022/09/30 08:04:33;;;;;;;2.60;2.40;;;;;;;23.06;55.16;96905.69;5053367;28;20722;-31
2022/09/30 08:07:01;;;;;;;2.60;2.40;;;;;;;23.06;55.30;96904.00;5058354;28;20589;-31
2022/09/30 08:09:28;;;;;;;2.70;2.40;;;;;;;23.06;55.13;96908.25;5060102;28;20659;-31
2022/09/30 08:11:55;;;;;;;2.50;2.30;;;;;;;22.97;55.04;96890.19;5060490;28;20227;-31
2022/09/30 08:14:23;;;;;;;2.20;2.10;;;;;;;23.06;55.02;96900.56;5053116;28;20225;-31
2022/09/30 08:16:50;;;;;;;2.40;2.20;;;;;;;23.06;55.17;96903.13;5053303;28;20643;-31
2022/09/30 08:19:19;;;;;;;2.50;2.30;;;;;;;23.06;55.09;96911.69;5053796;28;20193;-31
2022/09/30 08:21:46;;;;;;;3.07;2.77;;;;;;;23.06;54.93;96913.38;5053290;28;20193;-31
2022/09/30 08:24:12;;;;;;;2.77;2.57;;;;;;;23.07;55.08;96910.00;5053302;28;20224;-31
2022/09/30 08:26:39;;;;;;;2.23;2.13;;;;;;;23.05;55.04;96912.53;5061079;28;20204;-31
2022/09/30 08:29:06;;;;;;;2.50;2.30;;;;;;;23.06;54.97;96914.25;5044972;28;20196;-31
2022/09/30 08:31:32;;;;;;;2.70;2.50;;;;;;;23.05;55.06;96915.09;5052918;28;20225;-31
2022/09/30 08:33:59;;;;;;;2.50;2.30;;;;;;;23.06;55.03;96918.50;5052120;28;20482;-31
2022/09/30 08:36:26;;;;;;;2.40;2.20;;;;;;;23.07;55.14;96920.25;5053175;28;20201;-31
2022/09/30 08:38:52;;;;;;;2.33;2.13;;;;;;;23.06;55.18;96921.06;5052970;28;20243;-31
2022/09/30 08:41:40;;;;;;;2.50;2.30;;;;;;;23.06;55.18;96923.63;5058500;28;20630;-31
2022/09/30 08:44:19;;;;;;;2.40;2.20;;;;;;;23.07;55.00;96922.81;5065003;28;20216;-31
2022/09/30 08:46:52;;;;;;;2.60;2.40;;;;;;;23.04;54.93;96915.06;5052854;28;20686;-31
2022/09/30 08:49:54;;;;;;;2.60;2.40;;;;;;;23.06;55.08;96919.38;5062493;28;20734;-31
2022/09/30 08:52:42;;;;;;;2.50;2.30;;;;;;;23.06;54.77;96918.50;5053270;28;20224;-31
2022/09/30 08:55:19;;;;;;;2.13;2.00;;;;;;;22.95;54.99;96904.69;5032915;28;20574;-31
2022/09/30 08:57:46;;;;;;;2.90;2.63;;;;;;;23.06;55.00;96926.19;5051578;28;20710;-31
2022/09/30 09:00:15;;;;;;;2.60;2.40;;;;;;;23.06;55.06;96927.06;5064428;28;20216;-31
2022/09/30 09:02:44;;;;;;;2.50;2.30;;;;;;;23.06;55.04;96921.06;5044892;28;20650;-31
2022/09/30 09:05:45;;;;;;;2.43;2.23;;;;;;;23.06;55.08;96921.94;5056708;28;20233;-31
2022/09/30 09:08:20;;;;;;;2.00;1.90;;;;;;;23.02;55.20;96920.19;5046080;28;20224;-30
2022/09/30 09:10:54;;;;;;;2.67;2.47;;;;;;;23.02;55.18;96925.31;5051993;28;20193;-31
2022/09/30 09:13:35;;;;;;;2.37;2.17;;;;;;;23.04;55.10;96928.72;5036718;28;20201;-31
2022/09/30 09:16:23;;;;;;;2.67;2.47;;;;;;;23.04;55.29;96938.97;5061954;28;20211;-30
2022/09/30 09:19:09;;;;;;;2.43;2.23;;;;;;;23.05;55.04;96933.03;5057422;28;20243;-31
2022/09/30 09:21:51;;;;;;;2.03;1.93;;;;;;;23.05;55.11;96935.59;5052428;28;20577;-31
2022/09/30 09:24:26;;;;;;;2.40;2.20;;;;;;;23.04;55.12;96936.41;5057859;28;20219;-31
2022/09/30 09:26:53;;;;;;;2.23;2.10;;;;;;;23.05;54.93;96940.72;5050857;28;20232;-31
2022/09/30 09:29:23;;;;;;;2.37;2.20;;;;;;;23.04;54.99;96941.53;5051682;28;20750;-31
2022/09/30 09:31:50;;;;;;;2.50;2.30;;;;;;;23.04;55.10;96944.09;5067062;28;20217;-31
2022/09/30 09:34:16;;;;;;;2.23;2.13;;;;;;;23.05;55.32;96952.66;5058177;28;20219;-31
2022/09/30 09:37:14;;;;;;;2.03;1.93;;;;;;;23.05;54.93;96955.22;5051037;28;20656;-31
2022/09/30 09:40:10;;;;;;;2.30;2.10;;;;;;;23.05;55.11;96955.22;5051298;28;20193;-31
2022/09/30 09:43:17;;;;;;;2.27;2.10;;;;;;;23.05;55.02;96948.41;5047672;28;20189;-31
2022/09/30 09:45:53;;;;;;;2.47;2.27;;;;;;;23.05;55.03;96948.41;5048683;28;20577;-31
2022/09/30 09:48:20;;;;;;;2.10;2.00;;;;;;;23.05;55.11;96956.09;5032057;28;20197;-31
2022/09/30 09:51:02;;;;;;;2.30;2.10;;;;;;;23.05;55.25;96950.09;5052599;28;20581;-31
2022/09/30 09:53:48;;;;;;;2.37;2.17;;;;;;;23.05;55.11;96950.97;5051090;28;20197;-31
2022/09/30 09:56:22;;;;;;;2.20;2.10;;;;;;;23.06;55.02;96955.25;5051977;28;20211;-31
2022/09/30 09:59:07;;;;;;;2.20;2.10;;;;;;;23.05;55.08;96957.78;5053803;28;20200;-31
2022/09/30 10:01:35;;;;;;;2.47;2.27;;;;;;;23.06;55.09;96956.94;5060087;28;20204;-31
2022/09/30 10:04:31;;;;;;;2.47;2.27;;;;;;;23.07;54.99;96966.38;5052197;28;20394;-31
2022/09/30 10:07:13;;;;;;;2.50;2.30;;;;;;;23.05;55.06;96963.78;5054497;28;20205;-31
2022/09/30 10:09:40;;;;;;;2.27;2.07;;;;;;;23.06;54.93;96956.94;5052330;28;20572;-31
2022/09/30 10:12:07;;;;;;;2.23;2.03;;;;;;;23.06;55.06;96967.19;5053647;28;20599;-31
2022/09/30 10:14:34;;;;;;;2.47;2.27;;;;;;;23.05;55.10;96966.34;5051811;28;20227;-31
2022/09/30 10:17:02;;;;;;;2.10;2.00;;;;;;;23.05;55.01;96979.16;5051557;28;20201;-31
2022/09/30 10:19:31;;;;;;;2.10;2.00;;;;;;;22.96;54.99;96967.91;5052360;28;20220;-31
2022/09/30 10:22:07;;;;;;;2.40;2.20;;;;;;;23.04;55.17;96985.13;5050344;28;20554;-31
2022/09/30 10:24:35;;;;;;;2.50;2.30;;;;;;;23.04;55.03;96987.69;5052477;28;20594;-31
2022/09/30 10:27:02;;;;;;;2.00;1.90;;;;;;;23.05;55.07;96986.00;5051127;28;20667;-31
2022/09/30 10:29:31;;;;;;;2.10;2.00;;;;;;;23.04;55.04;96985.13;5052060;28;20614;-31
2022/09/30 10:32:07;;;;;;;2.40;2.20;;;;;;;23.06;55.09;96987.69;5056467;28;20261;-31
2022/09/30 10:34:35;;;;;;;2.40;2.20;;;;;;;23.05;55.10;96984.31;5051766;28;20586;-31
2022/09/30 10:37:16;;;;;;;2.20;2.10;;;;;;;23.05;55.09;96983.44;5047257;28;20212;-31
2022/09/30 10:39:43;;;;;;;2.30;2.10;;;;;;;22.96;55.24;96970.47;5050470;28;20204;-31
2022/09/30 10:42:20;;;;;;;2.53;2.33;;;;;;;23.05;55.14;96984.31;5023192;28;20194;-31
2022/09/30 10:44:56;;;;;;;2.00;1.90;;;;;;;22.97;54.98;96979.88;5051057;28;20220;-31
2022/09/30 10:47:26;;;;;;;2.40;2.20;;;;;;;23.05;55.20;96997.13;5050304;28;20216;-31
2022/09/30 10:50:02;;;;;;;2.57;2.37;;;;;;;23.04;55.08;96990.25;5032740;28;20242;-31
2022/09/30 10:52:31;;;;;;;2.00;1.90;;;;;;;23.05;55.00;96999.69;5050418;28;20227;-31
2022/09/30 10:54:58;;;;;;;2.10;2.00;;;;;;;23.02;55.13;96997.06;5032331;28;20257;-31
2022/09/30 10:57:28;;;;;;;2.20;2.10;;;;;;;23.05;55.11;96998.81;5050752;28;20196;-31
2022/09/30 11:00:20;;;;;;;2.40;2.20;;;;;;;23.06;55.04;97008.22;5051530;28;20201;-31
2022/09/30 11:03:04;;;;;;;2.20;2.03;;;;;;;23.06;55.15;97005.66;5049167;28;20189;-31
2022/09/30 11:05:34;;;;;;;2.30;2.10;;;;;;;23.06;55.02;97006.50;5049838;28;20239;-31
2022/09/30 11:08:12;;;;;;;2.10;2.00;;;;;;;23.07;55.24;97004.81;5050291;28;20730;-31
2022/09/30 11:11:08;;;;;;;2.40;2.20;;;;;;;23.06;55.04;97005.66;5055492;28;20199;-31
2022/09/30 11:13:47;;;;;;;2.20;2.10;;;;;;;23.06;55.04;96992.81;5050827;28;20193;-31
2022/09/30 11:16:18;;;;;;;2.10;2.00;;;;;;;23.03;55.03;96988.53;5044102;28;20200;-31
2022/09/30 11:19:06;;;;;;;2.37;2.20;;;;;;;23.05;55.24;97004.81;5050568;28;20204;-31
2022/09/30 11:21:38;;;;;;;1.90;1.80;;;;;;;23.04;55.11;96995.38;5058702;28;20193;-31
2022/09/30 11:24:14;;;;;;;2.10;2.00;;;;;;;23.04;55.17;96995.38;5055729;28;20235;-31
2022/09/30 11:27:05;;;;;;;2.00;1.90;;;;;;;23.04;55.11;96986.84;5050993;28;20576;-31
2022/09/30 11:29:41;;;;;;;2.30;2.10;;;;;;;23.05;55.19;96991.13;5047711;28;20208;-30
2022/09/30 11:32:10;;;;;;;2.10;2.00;;;;;;;23.04;55.00;96981.72;5049854;28;20703;-31
2022/09/30 11:34:55;;;;;;;2.40;2.20;;;;;;;23.04;55.35;96980.00;5051003;28;20245;-31
2022/09/30 11:37:38;;;;;;;2.30;2.10;;;;;;;23.05;55.16;96980.88;5044991;28;20204;-31
2022/09/30 11:40:46;;;;;;;2.33;2.17;;;;;;;23.04;55.08;96979.16;5049804;28;20209;-31
2022/09/30 11:43:26;;;;;;;1.97;1.80;;;;;;;23.03;55.12;96975.72;4991662;28;20602;-31
2022/09/30 11:46:14;;;;;;;2.00;1.90;;;;;;;23.04;55.12;96982.56;4980826;28;20222;-31
2022/09/30 11:48:56;;;;;;;2.17;2.07;;;;;;;23.04;55.12;96980.00;5028886;28;20562;-31
2022/09/30 11:51:23;;;;;;;2.33;2.13;;;;;;;23.03;55.09;96983.41;5043571;28;20193;-31
2022/09/30 11:54:08;;;;;;;2.20;2.10;;;;;;;23.04;55.22;96985.13;5050732;28;20233;-31
2022/09/30 11:56:45;;;;;;;2.30;2.10;;;;;;;23.04;55.19;96984.28;5049506;28;20208;-31